Flight Track Log - Related Links

Times and Time Zones

All times are in EDT time to prevent confusion due to time zone crossing. See the SKW5210 flight status page for this flight to view local times or setup timezone preferences in your user account.

Time Position Orientation Groundspeed Altitude Reporting Facility
EDT Latitude Longitude Course Direction KTS MPH feet Rate Location/Type
Sat 12:21:36 AM 45.5942 -122.5978 179° South 134 154 900  Level Seattle Center
Sat 12:22:25 AM 45.6089 -122.6503 292° West 195 224 2,900 2,474 Climbing Seattle Center
Sat 12:23:13 AM 45.6317 -122.7092 299° West 239 275 4,900 2,800 Climbing Seattle Center
Sat 12:23:25 AM 45.6386 -122.7289 297° West 227 261 5,700 2,667 Climbing Seattle Center
Sat 12:24:00 AM 45.1856 -122.5842 179° South  Level Estimated
Sat 12:24:25 AM 45.6097 -122.8144 244° Southwest 277 319 8,100  Level Seattle Center
Sat 12:25:00 AM 45.0512 -122.5801 179° South  Level Estimated
Sat 12:25:26 AM 45.5292 -122.8425 194° South 300 345 10,400  Level Seattle Center
Sat 12:26:00 AM 44.9168 -122.5759 179° South  Level Estimated
Sat 12:26:27 AM 45.4369 -122.8811 196° South 320 368 12,700  Level Seattle Center
Sat 12:27:00 AM 44.7824 -122.5718 179° South  Level Estimated
Sat 12:27:28 AM 45.3428 -122.9181 195° South 353 406 14,700  Level Seattle Center
Sat 12:28:29 AM 45.2478 -122.9575 196° South 355 409 16,800 1,587 Climbing Seattle Center
Sat 12:29:29 AM 45.1650 -122.9839 193° South 359 413 17,900 1,041 Climbing Seattle Center
Sat 12:30:30 AM 45.0572 -123.0083 189° South 381 438 18,900 1,033 Climbing Seattle Center
Sat 12:31:31 AM 44.9436 -123.0322 188° South 402 463 20,000 1,230 Climbing Seattle Center
Sat 12:32:32 AM 44.8283 -123.0592 189° South 410 472 21,400 1,230 Climbing Seattle Center
Sat 12:33:33 AM 44.7111 -123.0847 189° South 417 480 22,500 1,091 Climbing Seattle Center
Sat 12:34:33 AM 44.5931 -123.1119 189° South 421 484 23,600 1,140 Climbing Seattle Center
Sat 12:35:34 AM 44.4461 -123.1311 185° South 440 506 24,800 1,131 Climbing Seattle Center
Sat 12:36:35 AM 44.3203 -123.1264 178° South 449 517 25,900 984 Climbing Seattle Center
Sat 12:37:36 AM 44.1953 -123.1208 178° South 449 517 26,800 843 Climbing Seattle Center
Sat 12:38:36 AM 44.0694 -123.1175 179° South 449 517 27,600 893 Climbing Seattle Center
Sat 12:39:37 AM 43.9364 -123.1136 179° South 453 521 28,600 836 Climbing Seattle Center
Sat 12:40:38 AM 43.8103 -123.1094 179° South 454 522 29,300 639 Climbing Seattle Center
Sat 12:41:39 AM 43.6822 -123.1053 179° South 456 525 29,900 639 Climbing Seattle Center
Sat 12:42:40 AM 43.5542 -123.1000 178° South 457 526 30,600 645 Climbing Seattle Center
Sat 12:43:40 AM 43.4253 -123.0972 179° South 460 529 31,200 595 Climbing Seattle Center
Sat 12:44:41 AM 43.2972 -123.0917 178° South 460 529 31,800 787 Climbing Seattle Center
Sat 12:45:42 AM 43.1700 -123.0875 179° South 460 529 32,800 590 Climbing Seattle Center
Sat 12:46:43 AM 43.0439 -123.0833 179° South 456 525 33,000 99 Climbing Seattle Center
Sat 12:47:43 AM 42.9139 -123.0786 178° South 463 533 33,000  Level Seattle Center
Sat 12:48:44 AM 42.7833 -123.0728 178° South 467 537 33,000  Level Seattle Center
Sat 12:49:45 AM 42.6494 -123.0700 179° South 473 544 33,000  Level Seattle Center
Sat 12:50:45 AM 42.5172 -123.0656 179° South 474 545 33,000  Level Seattle Center
Sat 12:51:46 AM 42.3847 -123.0617 179° South 476 548 33,000  Level Seattle Center
Sat 12:52:47 AM 42.2539 -123.0564 178° South 476 548 33,000  Level Seattle Center
Sat 12:53:48 AM 42.1242 -123.0528 179° South 473 544 33,000  Level Seattle Center
Sat 12:54:48 AM 41.9956 -123.0467 178° South 469 540 33,000  Level Seattle Center
Sat 12:55:49 AM 41.8447 -123.0431 179° South 457 526 33,000  Level Seattle Center
Sat 12:56:50 AM 41.7183 -123.0400 179° South 455 524 33,000  Level Seattle Center
Sat 12:57:51 AM 41.5931 -123.0361 179° South 455 524 33,000  Level Seattle Center
Sat 12:58:35 AM 41.4947 -123.0350 180° South 454 522 33,000  Level Oakland Center
Sat 12:59:36 AM 41.3706 -123.0308 179° South 452 520 33,000  Level Oakland Center
Sat 01:00:37 AM 41.2606 -123.0275 179° South 449 517 33,000  Level Oakland Center
Sat 01:01:38 AM 41.1375 -123.0256 179° South 447 514 33,000  Level Oakland Center
Sat 01:02:39 AM 41.0139 -123.0206 178° South 445 512 33,000  Level Oakland Center
Sat 01:03:40 AM 40.8911 -123.0164 179° South 441 507 33,000  Level Oakland Center
Sat 01:04:40 AM 40.7467 -123.0128 179° South 440 506 33,000  Level Oakland Center
Sat 01:05:41 AM 40.6256 -123.0089 179° South 440 506 33,000  Level Oakland Center
Sat 01:06:42 AM 40.5056 -123.0058 179° South 438 504 33,000  Level Oakland Center
Sat 01:07:43 AM 40.3853 -123.0017 178° South 436 502 33,000  Level Oakland Center
Sat 01:08:44 AM 40.2658 -122.9978 179° South 435 501 33,000  Level Oakland Center
Sat 01:09:44 AM 40.1481 -122.9942 179° South 431 496 33,000  Level Oakland Center
Sat 01:10:45 AM 40.0292 -122.9914 179° South 431 496 33,000  Level Oakland Center
Sat 01:11:46 AM 39.9111 -122.9886 179° South 430 495 33,000  Level Oakland Center
Sat 01:12:47 AM 39.7936 -122.9853 179° South 429 494 33,000  Level Oakland Center
Sat 01:13:48 AM 39.6522 -122.9806 179° South 428 493 33,000  Level Oakland Center
Sat 01:14:48 AM 39.5347 -122.9775 179° South 427 491 33,000  Level Oakland Center
Sat 01:15:49 AM 39.4275 -122.9733 178° South 427 491 33,000  Level Oakland Center
Sat 01:16:50 AM 39.3083 -122.9694 179° South 427 491 33,000  Level Oakland Center
Sat 01:17:51 AM 39.1892 -122.9647 178° South 429 494 33,000  Level Oakland Center
Sat 01:18:51 AM 39.0686 -122.9369 170° South 439 505 33,000 -298 Level Oakland Center
Sat 01:19:52 AM 38.9492 -122.9083 169° South 438 504 32,400 -1,672 Descending Oakland Center
Sat 01:20:53 AM 38.8283 -122.8817 170° South 439 505 29,600 -3,148 Descending Oakland Center
Sat 01:21:54 AM 38.6814 -122.8483 170° South 449 517 26,000 -3,074 Descending Oakland Center
Sat 01:22:54 AM 38.5603 -122.8211 170° South 447 514 23,400 -2,579 Descending Oakland Center
Sat 01:23:55 AM 38.4419 -122.7936 170° South 438 504 20,800 -2,557 Descending Oakland Center
Sat 01:24:56 AM 38.3267 -122.7675 170° South 426 490 18,200 -2,579 Descending Oakland Center
Sat 01:25:56 AM 38.2156 -122.7417 170° South 409 471 15,600 -2,281 Descending Oakland Center
Sat 01:26:57 AM 38.1097 -122.7181 170° South 392 451 13,600 -1,721 Descending Oakland Center
Sat 01:27:58 AM 38.0053 -122.6956 170° South 386 444 12,100 -1,289 Descending Oakland Center
Sat 01:28:58 AM 37.9192 -122.6306 149° Southeast 372 428 11,000 -595 Descending Oakland Center
Sat 01:29:59 AM 37.8411 -122.5631 146° Southeast 364 419 10,900 -49 Descending Oakland Center
Sat 01:31:00 AM 37.7542 -122.4886 146° Southeast 304 350 10,900  Level Oakland Center
Sat 01:32:00 AM 37.7114 -122.4144 126° Southeast 271 312 10,900 -645 Level Oakland Center
Sat 01:33:01 AM 37.6778 -122.3319 117° Southeast 266 306 9,600 -942 Descending Oakland Center
Sat 01:34:01 AM 37.6464 -122.2556 117° Southeast 255 293 9,000 -1,140 Descending Oakland Center
Sat 01:35:02 AM 37.6219 -122.1911 116° Southeast 216 249 7,300 -1,672 Descending Oakland Center
Sat 01:36:03 AM 37.5972 -122.1272 116° Southeast 207 238 5,600 -1,190 Descending Oakland Center
Sat 01:37:03 AM 37.5567 -122.1208 173° South 211 243 4,900 -1,099 Descending Oakland Center
Sat 01:38:14 AM 37.5500 -122.2000 264° West 187 215 3,200 -1,377 Descending Northern Cal TRACON
Sat 01:39:05 AM 37.5681 -122.2453 297° West 184 212 2,100 -1,027 Descending Oakland Center
Sat 01:40:05 AM 37.5864 -122.2903 297° West 160 184 1,300 -793 Descending Oakland Center
Sat 01:41:06 AM 37.6031 -122.3344 295° West 148 170 500 -545 Descending Oakland Center
Sat 01:42:06 AM 37.6189 -122.3731 297° West 143 165 200 -300 Descending Oakland Center

Login

Don't have an account? Register now (free) for customized features, flight alerts, and more!